Bookmark and Share
Track history (hours):
 

Meridien

Last reported at 2014-Apr-18 16:06 UTC. Time now 2014-Apr-19 02:13 UTC.
Position N 43°24' E 004°59'.

Length 21 m.

MMSI: 227321780.

NotesDate/timePositionNaut miles runAvg speedWind from/ knotsBaromVisibWave heightAir tempDewpointWater temp
2014-Apr-18 16:06N 43°24' E 004°59'0 0.4
2014-Apr-18 15:33N 43°24' E 004°59'1 0.5
2014-Apr-18 14:33N 43°24' E 004°60'2 2.1
2014-Apr-18 13:33N 43°23' E 004°58'3 1.5
2014-Apr-18 11:25N 43°20' E 004°56'3 3.6
2014-Apr-18 10:32N 43°19' E 005°00'1 0.7
2014-Apr-18 09:33N 43°19' E 005°01'4 3.8
2014-Apr-18 08:32N 43°20' E 004°56'10 2.3
2014-Apr-18 04:13N 43°18' E 004°42'13 0.9
2014-Apr-17 13:33N 43°23' E 004°59'3 0.2
2014-Apr-17 01:25N 43°20' E 004°57'5 0.4
2014-Apr-16 14:33N 43°24' E 004°60'2 2.1
2014-Apr-16 13:33N 43°22' E 004°59'5 0.9
2014-Apr-16 07:23N 43°18' E 004°55'3 3.6
2014-Apr-16 06:33N 43°19' E 004°59'3 3.2
2014-Apr-16 05:33N 43°19' E 004°54'0 0.1
2014-Apr-16 02:23N 43°19' E 004°54'6 6.8
2014-Apr-16 01:33N 43°24' E 004°59'1 0.9
2014-Apr-16 00:33N 43°24' E 004°60'0 0.0
2014-Apr-15 15:31N 43°24' E 004°60'0 0.1
2014-Apr-15 14:34N 43°24' E 004°60'1 0.5
2014-Apr-15 12:34N 43°23' E 004°59'6 5.5
2014-Apr-15 11:34N 43°18' E 005°02'4 3.8
2014-Apr-15 10:33N 43°20' E 004°57'5 0.2
2014-Apr-14 13:34N 43°24' E 004°60'  
2014-Apr-11 15:24N 43°24' E 004°59'0 0.6
2014-Apr-11 14:33N 43°24' E 004°60'5 0.4
2014-Apr-11 01:28N 43°20' E 004°56'5 0.5
2014-Apr-10 14:29N 43°24' E 004°60'1 1.3
2014-Apr-10 13:33N 43°23' E 004°59'2 0.2
2014-Apr-10 01:25N 43°21' E 004°58'4 0.3
2014-Apr-09 14:33N 43°24' E 004°60'1 1.3
2014-Apr-09 13:33N 43°23' E 004°58'6 5.9
2014-Apr-09 12:33N 43°18' E 004°55'2 0.2
2014-Apr-09 01:28N 43°20' E 004°56'  

Dump ship's entire track history

sailing weather and tide predictions

Meridien — FT2092 — position and weather